Katunayake, Sri Lanka
Current Conditions -  °F | °C
As of 2:10 AM on Wednesday 26 Nov 2014 (Local Time) from VCBI Reporting Station
Broken Clouds Broken Clouds  
Wind Chill: 75°   Ceiling: 10000
Heat Index: 75°   Visibility: 6mi
Dew Point: 72°   Wind: 9mph
Humidity: 89%   Direction: 20°NNE
Pressure: 29.77"   Gusts: NA
Location:  7.17°N, 79.88°E
Report Text: VCBI 252010Z 02008KT 9999 SCT030 BKN100 24/22 Q1008 NOSIG
Loading
Personal Weather Stations






























Interactive Weather Map New forecast layout! Learn more

10-Day Weather Forecast

Advertisements
Track Severe Weather on mobile